createdAt,value
2023-01-18T00:02:22.881Z,-3.05
2023-01-18T00:05:08.792Z,-2.98
2023-01-18T00:07:54.754Z,-2.91
2023-01-18T00:10:42.416Z,-2.90
2023-01-18T00:13:28.329Z,-2.94
2023-01-18T00:16:15.092Z,-3.02
2023-01-18T00:19:00.960Z,-3.07
2023-01-18T00:21:46.675Z,-3.10
2023-01-18T00:24:32.852Z,-3.13
2023-01-18T00:27:21.087Z,-3.16
2023-01-18T00:30:07.401Z,-3.19
2023-01-18T00:32:54.992Z,-3.21
2023-01-18T00:35:43.285Z,-3.24
2023-01-18T00:38:29.462Z,-3.25
2023-01-18T00:41:15.288Z,-3.29
2023-01-18T00:44:01.959Z,-3.32
2023-01-18T00:46:49.905Z,-3.35
2023-01-18T00:49:35.907Z,-3.39
2023-01-18T00:52:21.890Z,-3.41
2023-01-18T00:55:08.533Z,-3.45
2023-01-18T00:57:54.610Z,-3.50
2023-01-18T01:00:41.986Z,-3.53
2023-01-18T01:03:27.557Z,-3.55
2023-01-18T01:06:32.179Z,-3.55
2023-01-18T01:09:19.184Z,-3.58
2023-01-18T01:12:22.849Z,-3.61
2023-01-18T01:15:27.198Z,-3.64
2023-01-18T01:18:32.279Z,-3.69
2023-01-18T01:21:36.130Z,-3.71
2023-01-18T01:24:40.141Z,-3.72
2023-01-18T01:27:26.162Z,-3.76
2023-01-18T01:30:12.210Z,-3.80
2023-01-18T01:32:58.696Z,-3.83
2023-01-18T01:35:45.857Z,-3.87
2023-01-18T01:38:31.690Z,-3.89
2023-01-18T01:41:18.067Z,-3.95
2023-01-18T01:44:04.856Z,-3.99
2023-01-18T01:46:52.170Z,-4.00
2023-01-18T01:49:40.035Z,-4.05
2023-01-18T01:52:27.958Z,-4.07
2023-01-18T01:55:14.536Z,-4.07
2023-01-18T01:58:01.782Z,-4.10
2023-01-18T02:00:47.863Z,-4.12
2023-01-18T02:03:33.928Z,-4.16
2023-01-18T02:06:31.319Z,-4.20
2023-01-18T02:09:22.988Z,-4.19
2023-01-18T02:12:08.733Z,-4.26
2023-01-18T02:14:54.680Z,-4.29
2023-01-18T02:17:49.831Z,-4.31
2023-01-18T02:20:59.908Z,-4.34
2023-01-18T02:24:01.352Z,-4.36
2023-01-18T02:26:56.277Z,-4.36
2023-01-18T02:29:51.926Z,-4.39
2023-01-18T02:32:40.045Z,-4.41
2023-01-18T02:35:27.209Z,-4.43
2023-01-18T02:38:13.862Z,-4.46
2023-01-18T02:41:05.479Z,-4.49
2023-01-18T02:44:10.083Z,-4.51
2023-01-18T02:46:57.569Z,-4.52
2023-01-18T02:49:43.400Z,-4.53
2023-01-18T02:52:40.095Z,-4.57
2023-01-18T02:55:29.836Z,-4.59
2023-01-18T02:58:16.589Z,-4.61
2023-01-18T03:01:04.046Z,-4.63
2023-01-18T03:03:51.510Z,-4.62
2023-01-18T03:06:37.280Z,-4.65
2023-01-18T03:09:27.046Z,-4.66
2023-01-18T03:12:15.960Z,-4.72
2023-01-18T03:15:04.945Z,-4.70
2023-01-18T03:17:51.654Z,-4.72
2023-01-18T03:20:40.283Z,-4.72
2023-01-18T03:23:39.737Z,-4.74
2023-01-18T03:26:25.675Z,-4.74
2023-01-18T03:29:29.596Z,-4.73
2023-01-18T03:32:33.900Z,-4.76
2023-01-18T03:35:20.004Z,-4.75
2023-01-18T03:38:07.080Z,-4.76
2023-01-18T03:40:52.978Z,-4.79
2023-01-18T03:43:38.735Z,-4.80
2023-01-18T03:46:24.572Z,-4.79
2023-01-18T03:49:10.587Z,-4.84
2023-01-18T03:51:59.453Z,-4.86
2023-01-18T03:54:49.038Z,-4.86
2023-01-18T03:57:35.263Z,-4.86
2023-01-18T04:00:21.552Z,-4.87
2023-01-18T04:03:07.653Z,-4.88
2023-01-18T04:05:53.374Z,-4.88
2023-01-18T04:08:39.117Z,-4.87
2023-01-18T04:11:26.273Z,-4.87
2023-01-18T04:14:12.147Z,-4.86
2023-01-18T04:16:57.949Z,-4.87
2023-01-18T04:19:43.789Z,-4.88
2023-01-18T04:22:29.691Z,-4.88
2023-01-18T04:25:15.382Z,-4.91
2023-01-18T04:28:02.416Z,-4.92
2023-01-18T04:30:50.548Z,-4.89
2023-01-18T04:33:36.539Z,-4.90
2023-01-18T04:36:22.437Z,-4.90
2023-01-18T04:39:10.635Z,-4.91
2023-01-18T04:41:57.350Z,-4.93
2023-01-18T04:44:44.644Z,-4.94
2023-01-18T04:47:30.453Z,-4.94
2023-01-18T04:50:16.287Z,-4.95
2023-01-18T04:53:02.438Z,-4.94
2023-01-18T04:55:48.452Z,-4.94
2023-01-18T04:58:34.198Z,-4.96
2023-01-18T05:01:22.109Z,-4.96
2023-01-18T05:04:08.216Z,-4.97
2023-01-18T05:06:54.001Z,-4.95
2023-01-18T05:09:39.776Z,-4.95
2023-01-18T05:12:25.500Z,-4.92
2023-01-18T05:15:11.860Z,-4.95
2023-01-18T05:17:58.900Z,-4.95
2023-01-18T05:20:44.615Z,-4.94
2023-01-18T05:23:30.551Z,-4.97
2023-01-18T05:26:17.040Z,-4.97
2023-01-18T05:29:02.917Z,-4.97
2023-01-18T05:31:48.753Z,-4.97
2023-01-18T05:34:35.809Z,-4.99
2023-01-18T05:37:21.482Z,-5.01
2023-01-18T05:40:09.195Z,-5.01
2023-01-18T05:42:55.024Z,-5.00
2023-01-18T05:45:41.081Z,-5.03
2023-01-18T05:48:27.287Z,-5.05
2023-01-18T05:51:14.835Z,-5.05
2023-01-18T05:54:00.789Z,-5.06
2023-01-18T05:56:46.586Z,-5.06
2023-01-18T05:59:32.285Z,-5.07
2023-01-18T06:02:18.229Z,-5.05
2023-01-18T06:05:03.992Z,-5.06
2023-01-18T06:07:51.116Z,-5.07
2023-01-18T06:10:36.975Z,-5.06
2023-01-18T06:13:23.480Z,-5.06
2023-01-18T06:16:09.837Z,-5.09
2023-01-18T06:18:55.817Z,-5.10
2023-01-18T06:21:41.660Z,-5.11
2023-01-18T06:24:28.772Z,-5.11
2023-01-18T06:27:14.517Z,-5.11
2023-01-18T06:30:00.551Z,-5.11
2023-01-18T06:32:47.036Z,-5.10
2023-01-18T06:35:33.224Z,-5.11
2023-01-18T06:38:18.907Z,-5.11
2023-01-18T06:41:06.429Z,-5.11
2023-01-18T06:43:52.688Z,-5.12
2023-01-18T06:46:38.370Z,-5.13
2023-01-18T06:49:24.213Z,-5.13
2023-01-18T06:52:10.675Z,-5.12
2023-01-18T06:54:56.558Z,-5.12
2023-01-18T06:57:43.780Z,-5.15
2023-01-18T07:00:29.823Z,-5.15
2023-01-18T07:03:15.567Z,-5.14
2023-01-18T07:06:02.586Z,-5.16
2023-01-18T07:08:49.083Z,-5.15
2023-01-18T07:11:35.701Z,-5.13
2023-01-18T07:14:23.391Z,-5.13
2023-01-18T07:17:09.742Z,-5.15
2023-01-18T07:19:55.703Z,-5.14
2023-01-18T07:22:41.675Z,-5.13
2023-01-18T07:25:27.562Z,-5.12
2023-01-18T07:28:13.782Z,-5.13
2023-01-18T07:31:01.305Z,-5.13
2023-01-18T07:33:47.005Z,-5.09
2023-01-18T07:36:32.861Z,-5.10
2023-01-18T07:39:18.592Z,-5.09
2023-01-18T07:42:04.822Z,-5.07
2023-01-18T07:44:51.176Z,-5.06
2023-01-18T07:47:39.581Z,-5.05
2023-01-18T07:50:25.391Z,-5.06
2023-01-18T07:53:11.827Z,-5.02
2023-01-18T07:55:59.584Z,-4.98
2023-01-18T07:58:45.756Z,-4.98
2023-01-18T08:01:32.319Z,-4.97
2023-01-18T08:04:19.777Z,-4.94
2023-01-18T08:07:05.591Z,-4.94
2023-01-18T08:09:51.459Z,-4.88
2023-01-18T08:12:37.138Z,-4.84
2023-01-18T08:15:22.904Z,-4.80
2023-01-18T08:18:08.943Z,-4.77
2023-01-18T08:20:56.304Z,-4.74
2023-01-18T08:23:42.179Z,-4.70
2023-01-18T08:26:28.063Z,-4.64
2023-01-18T08:29:13.931Z,-4.60
2023-01-18T08:32:00.661Z,-4.56
2023-01-18T08:34:46.865Z,-4.53
2023-01-18T08:37:33.936Z,-4.47
2023-01-18T08:40:19.937Z,-4.40
2023-01-18T08:43:05.958Z,-4.35
2023-01-18T08:45:51.951Z,-4.28
2023-01-18T08:48:37.767Z,-4.23
2023-01-18T08:51:25.831Z,-4.16
2023-01-18T08:54:13.084Z,-4.10
2023-01-18T08:56:59.112Z,-4.05
2023-01-18T08:59:45.229Z,-4.00
2023-01-18T09:02:31.464Z,-3.91
2023-01-18T09:05:17.390Z,-3.85
2023-01-18T09:08:03.152Z,-3.78
2023-01-18T09:10:50.424Z,-3.70
2023-01-18T09:13:36.151Z,-3.60
2023-01-18T09:16:22.211Z,-3.53
2023-01-18T09:19:08.050Z,-3.45
2023-01-18T09:21:53.875Z,-3.39
2023-01-18T09:24:39.978Z,-3.29
2023-01-18T09:27:27.477Z,-3.21
2023-01-18T09:30:16.063Z,-3.11
2023-01-18T09:33:02.380Z,-3.00
2023-01-18T09:35:48.719Z,-2.90
2023-01-18T09:38:36.357Z,-2.78
2023-01-18T09:41:25.483Z,-2.69
2023-01-18T09:44:16.648Z,-2.58
2023-01-18T09:47:04.745Z,-2.46
2023-01-18T09:49:54.870Z,-2.34
2023-01-18T09:52:42.661Z,-2.25
2023-01-18T09:55:33.060Z,-2.13
2023-01-18T09:58:33.685Z,-2.01
2023-01-18T10:01:22.299Z,-1.88
2023-01-18T10:04:08.951Z,-1.76
2023-01-18T10:06:55.193Z,-1.64
2023-01-18T10:09:41.709Z,-1.53
2023-01-18T10:12:30.927Z,-1.43
2023-01-18T10:15:20.126Z,-1.33
2023-01-18T10:18:08.872Z,-1.18
2023-01-18T10:20:56.201Z,-1.08
2023-01-18T10:23:42.292Z,-0.98
2023-01-18T10:26:30.479Z,-0.85
2023-01-18T10:29:17.809Z,-0.74
2023-01-18T10:32:04.291Z,-0.57
2023-01-18T10:34:52.374Z,-0.47
2023-01-18T10:37:40.255Z,-0.35
2023-01-18T10:40:26.331Z,-0.25
2023-01-18T10:43:14.896Z,-0.14
2023-01-18T10:46:01.012Z,-0.06
2023-01-18T10:48:47.503Z,0.03
2023-01-18T10:51:35.845Z,0.12
2023-01-18T10:54:22.909Z,0.19
2023-01-18T10:57:15.679Z,0.24
2023-01-18T11:00:01.630Z,0.32
2023-01-18T11:02:48.241Z,0.40
2023-01-18T11:05:34.678Z,0.45
2023-01-18T11:08:23.621Z,0.54
2023-01-18T11:11:16.437Z,0.63
2023-01-18T11:14:02.781Z,0.70
2023-01-18T11:16:57.350Z,0.77
2023-01-18T11:19:43.430Z,0.84
2023-01-18T11:22:33.368Z,0.90
2023-01-18T11:25:20.853Z,0.95
2023-01-18T11:28:08.343Z,1.02
2023-01-18T11:30:55.541Z,1.10
2023-01-18T11:33:47.855Z,1.20
2023-01-18T11:36:34.755Z,1.30
2023-01-18T11:39:25.468Z,1.40
2023-01-18T11:42:15.714Z,1.62
2023-01-18T11:45:07.601Z,1.89
2023-01-18T11:47:58.938Z,2.12
2023-01-18T11:50:45.332Z,2.17
2023-01-18T11:53:35.983Z,2.27
2023-01-18T11:56:23.375Z,2.23
2023-01-18T11:59:13.514Z,2.32
2023-01-18T12:02:08.039Z,2.34
2023-01-18T12:05:00.971Z,2.41
2023-01-18T12:07:49.600Z,2.37
2023-01-18T12:10:36.860Z,2.40
2023-01-18T12:13:33.950Z,2.42
2023-01-18T12:16:22.241Z,2.46
2023-01-18T12:19:22.057Z,2.48
2023-01-18T12:22:13.301Z,2.51
2023-01-18T12:25:02.136Z,2.61
2023-01-18T12:27:49.843Z,2.67
2023-01-18T12:30:43.002Z,2.76
2023-01-18T12:33:43.136Z,2.76
2023-01-18T12:36:36.202Z,2.88
2023-01-18T12:39:25.062Z,2.94
2023-01-18T12:42:11.777Z,3.02
2023-01-18T12:45:00.768Z,3.10
2023-01-18T12:47:49.355Z,3.14
2023-01-18T12:50:37.675Z,3.17
2023-01-18T12:53:25.180Z,3.16
2023-01-18T12:56:14.289Z,3.16
2023-01-18T12:59:00.593Z,3.15
2023-01-18T13:01:47.466Z,3.04
2023-01-18T13:04:35.908Z,3.02
2023-01-18T13:07:26.507Z,2.97
2023-01-18T13:10:16.054Z,2.94
2023-01-18T13:13:02.093Z,2.91
2023-01-18T13:15:48.945Z,2.90
2023-01-18T13:18:36.862Z,2.87
2023-01-18T13:21:25.074Z,2.84
2023-01-18T13:24:15.939Z,2.81
2023-01-18T13:27:09.113Z,2.79
2023-01-18T13:29:54.917Z,2.70
2023-01-18T13:32:42.319Z,2.68
2023-01-18T13:35:32.593Z,2.65
2023-01-18T13:38:19.415Z,2.62
2023-01-18T13:41:08.252Z,2.62
2023-01-18T13:44:02.775Z,2.63
2023-01-18T13:46:48.683Z,2.66
2023-01-18T13:49:38.428Z,2.77
2023-01-18T13:52:31.603Z,2.92
2023-01-18T13:55:31.065Z,3.10
2023-01-18T13:58:19.689Z,3.25
2023-01-18T14:01:06.241Z,3.31
2023-01-18T14:03:52.507Z,3.31
2023-01-18T14:06:39.224Z,3.32
2023-01-18T14:09:46.244Z,3.28
2023-01-18T14:12:48.113Z,3.22
2023-01-18T14:15:51.308Z,3.20
2023-01-18T14:18:37.568Z,3.08
2023-01-18T14:21:24.855Z,3.01
2023-01-18T14:24:14.784Z,2.90
2023-01-18T14:27:00.933Z,2.67
2023-01-18T14:29:47.391Z,2.67
2023-01-18T14:32:36.603Z,2.55
2023-01-18T14:35:25.644Z,2.42
2023-01-18T14:38:17.980Z,2.26
2023-01-18T14:41:05.285Z,2.24
2023-01-18T14:43:51.632Z,2.11
2023-01-18T14:46:37.688Z,2.02
2023-01-18T14:49:26.469Z,1.94
2023-01-18T14:52:12.866Z,1.87
2023-01-18T14:54:59.089Z,1.74
2023-01-18T14:57:45.173Z,1.68
2023-01-18T15:00:31.305Z,1.55
2023-01-18T15:03:23.954Z,1.45
2023-01-18T15:06:13.454Z,1.34
2023-01-18T15:08:59.183Z,1.22
2023-01-18T15:11:45.274Z,1.16
2023-01-18T15:14:32.320Z,1.05
2023-01-18T15:17:21.848Z,1.04
2023-01-18T15:20:09.691Z,0.95
2023-01-18T15:22:57.459Z,0.87
2023-01-18T15:25:43.577Z,0.80
2023-01-18T15:28:30.613Z,0.74
2023-01-18T15:31:16.692Z,0.64
2023-01-18T15:34:03.188Z,0.58
2023-01-18T15:36:49.013Z,0.51
2023-01-18T15:39:36.421Z,0.42
2023-01-18T15:42:22.583Z,0.39
2023-01-18T15:45:13.811Z,0.29
2023-01-18T15:48:01.618Z,0.21
2023-01-18T15:50:49.027Z,0.18
2023-01-18T15:53:35.536Z,0.08
2023-01-18T15:56:23.310Z,0.04
2023-01-18T15:59:09.816Z,-0.02
2023-01-18T16:02:05.557Z,-0.04
2023-01-18T16:05:04.149Z,-0.10
2023-01-18T16:07:51.522Z,-0.11
2023-01-18T16:10:47.288Z,-0.13
2023-01-18T16:13:36.599Z,-0.16
2023-01-18T16:16:24.466Z,-0.20
2023-01-18T16:19:12.791Z,-0.23
2023-01-18T16:21:59.777Z,-0.28
2023-01-18T16:24:46.567Z,-0.32
2023-01-18T16:27:33.917Z,-0.35
2023-01-18T16:30:22.334Z,-0.37
2023-01-18T16:33:09.813Z,-0.38
2023-01-18T16:35:55.592Z,-0.40
2023-01-18T16:38:41.254Z,-0.41
2023-01-18T16:41:26.938Z,-0.39
2023-01-18T16:44:12.720Z,-0.43
2023-01-18T16:46:59.869Z,-0.45
2023-01-18T16:49:45.689Z,-0.49
2023-01-18T16:52:31.466Z,-0.52
2023-01-18T16:55:17.863Z,-0.52
2023-01-18T16:58:03.762Z,-0.54
2023-01-18T17:00:51.216Z,-0.56
2023-01-18T17:03:39.455Z,-0.57
2023-01-18T17:06:26.365Z,-0.56
2023-01-18T17:09:19.582Z,-0.56
2023-01-18T17:12:05.473Z,-0.55
2023-01-18T17:14:51.303Z,-0.61
2023-01-18T17:17:37.077Z,-0.67
2023-01-18T17:20:25.281Z,-0.69
2023-01-18T17:23:11.503Z,-0.68
2023-01-18T17:25:58.373Z,-0.71
2023-01-18T17:28:44.565Z,-0.76
2023-01-18T17:31:30.691Z,-0.75
2023-01-18T17:34:17.386Z,-0.77
2023-01-18T17:37:04.621Z,-0.82
2023-01-18T17:40:10.990Z,-0.81
2023-01-18T17:42:57.034Z,-0.85
2023-01-18T17:45:48.388Z,-0.84
2023-01-18T17:48:37.369Z,-0.82
2023-01-18T17:51:23.228Z,-0.84
2023-01-18T17:54:16.747Z,-0.83
2023-01-18T17:57:06.500Z,-0.82
2023-01-18T17:59:55.325Z,-0.82
2023-01-18T18:02:41.218Z,-0.77
2023-01-18T18:05:27.199Z,-0.77
2023-01-18T18:08:12.939Z,-0.79
2023-01-18T18:11:00.173Z,-0.77
2023-01-18T18:13:46.313Z,-0.84
2023-01-18T18:16:34.425Z,-0.83
2023-01-18T18:19:25.320Z,-0.86
2023-01-18T18:22:11.298Z,-0.88
2023-01-18T18:24:57.168Z,-0.94
2023-01-18T18:27:46.478Z,-0.93
2023-01-18T18:30:33.185Z,-0.98
2023-01-18T18:33:19.423Z,-1.01
2023-01-18T18:36:05.813Z,-1.05
2023-01-18T18:38:51.783Z,-1.06
2023-01-18T18:41:37.606Z,-1.07
2023-01-18T18:44:24.777Z,-1.03
2023-01-18T18:47:13.267Z,-1.05
2023-01-18T18:49:59.382Z,-1.00
2023-01-18T18:52:45.579Z,-0.98
2023-01-18T18:55:31.292Z,-0.98
2023-01-18T18:58:17.065Z,-0.95
2023-01-18T19:01:04.871Z,-0.92
2023-01-18T19:03:51.636Z,-0.91
2023-01-18T19:06:38.183Z,-0.90
2023-01-18T19:09:24.127Z,-0.88
2023-01-18T19:12:09.749Z,-0.91
2023-01-18T19:14:55.560Z,-0.91
2023-01-18T19:17:42.675Z,-0.93
2023-01-18T19:20:28.544Z,-0.94
2023-01-18T19:23:14.990Z,-0.98
2023-01-18T19:26:01.060Z,-1.00
2023-01-18T19:28:47.936Z,-1.09
2023-01-18T19:31:34.093Z,-1.11
2023-01-18T19:34:21.992Z,-1.14
2023-01-18T19:37:07.943Z,-1.18
2023-01-18T19:39:53.885Z,-1.23
2023-01-18T19:42:39.668Z,-1.25
2023-01-18T19:45:28.993Z,-1.26
2023-01-18T19:48:15.341Z,-1.27
2023-01-18T19:51:20.225Z,-1.31
2023-01-18T19:54:06.910Z,-1.23
2023-01-18T19:56:52.804Z,-1.22
2023-01-18T19:59:38.785Z,-1.20
2023-01-18T20:02:24.746Z,-1.18
2023-01-18T20:05:11.044Z,-1.06
2023-01-18T20:07:58.029Z,-1.02
2023-01-18T20:10:43.810Z,-0.96
2023-01-18T20:13:29.899Z,-0.89
2023-01-18T20:16:16.094Z,-0.84
2023-01-18T20:19:02.117Z,-0.78
2023-01-18T20:21:48.041Z,-0.80
2023-01-18T20:24:35.324Z,-0.80
2023-01-18T20:27:21.192Z,-0.81
2023-01-18T20:30:07.647Z,-0.79
2023-01-18T20:32:53.364Z,-0.78
2023-01-18T20:35:39.861Z,-0.74
2023-01-18T20:38:26.573Z,-0.78
2023-01-18T20:41:13.891Z,-0.80
2023-01-18T20:43:59.772Z,-0.80
2023-01-18T20:46:47.426Z,-0.79
2023-01-18T20:49:38.335Z,-0.81
2023-01-18T20:52:24.535Z,-0.78
2023-01-18T20:55:12.938Z,-0.81
2023-01-18T20:58:00.233Z,-0.82
2023-01-18T21:00:46.014Z,-0.86
2023-01-18T21:03:31.928Z,-0.84
2023-01-18T21:06:17.891Z,-0.83
2023-01-18T21:09:04.101Z,-0.85
2023-01-18T21:11:50.026Z,-0.82
2023-01-18T21:14:36.954Z,-0.82
2023-01-18T21:17:22.652Z,-0.80
2023-01-18T21:20:09.040Z,-0.82
2023-01-18T21:22:54.741Z,-0.81
2023-01-18T21:25:40.975Z,-0.78
2023-01-18T21:28:27.044Z,-0.79
2023-01-18T21:31:14.171Z,-0.83
2023-01-18T21:34:00.111Z,-0.84
2023-01-18T21:36:46.514Z,-0.85
2023-01-18T21:39:32.905Z,-0.85
2023-01-18T21:42:36.676Z,-0.87
2023-01-18T21:45:40.611Z,-0.89
2023-01-18T21:48:29.183Z,-0.89
2023-01-18T21:51:33.055Z,-0.84
2023-01-18T21:54:21.928Z,-0.80
2023-01-18T21:57:09.334Z,-0.79
2023-01-18T21:59:55.955Z,-0.78
2023-01-18T22:02:41.887Z,-0.77
2023-01-18T22:05:29.559Z,-0.78
2023-01-18T22:08:15.765Z,-0.81
2023-01-18T22:11:01.593Z,-0.76
2023-01-18T22:13:47.534Z,-0.74
2023-01-18T22:16:33.568Z,-0.75
2023-01-18T22:19:19.951Z,-0.71
2023-01-18T22:22:07.425Z,-0.70
2023-01-18T22:24:53.333Z,-0.70
2023-01-18T22:27:39.270Z,-0.65
2023-01-18T22:30:26.458Z,-0.59
2023-01-18T22:33:12.594Z,-0.57
2023-01-18T22:35:58.477Z,-0.58
2023-01-18T22:38:45.739Z,-0.57
2023-01-18T22:41:31.765Z,-0.58
2023-01-18T22:44:18.111Z,-0.53
2023-01-18T22:47:03.859Z,-0.54
2023-01-18T22:49:49.657Z,-0.54
2023-01-18T22:52:35.409Z,-0.56
2023-01-18T22:55:22.507Z,-0.49
2023-01-18T22:58:08.755Z,-0.46
2023-01-18T23:00:54.572Z,-0.48
2023-01-18T23:03:40.998Z,-0.46
2023-01-18T23:06:28.855Z,-0.48
2023-01-18T23:09:15.514Z,-0.46
2023-01-18T23:12:02.564Z,-0.43
2023-01-18T23:15:20.651Z,-0.44
2023-01-18T23:18:06.929Z,-0.47
2023-01-18T23:20:56.680Z,-0.46
2023-01-18T23:23:42.450Z,-0.43
2023-01-18T23:26:28.539Z,-0.47
2023-01-18T23:29:15.648Z,-0.46
2023-01-18T23:32:01.546Z,-0.47
2023-01-18T23:34:47.697Z,-0.44
2023-01-18T23:37:33.395Z,-0.40
2023-01-18T23:40:37.492Z,-0.40
2023-01-18T23:43:41.352Z,-0.35
2023-01-18T23:46:46.514Z,-0.35
2023-01-18T23:49:50.175Z,-0.33
2023-01-18T23:52:53.994Z,-0.34
2023-01-18T23:55:41.328Z,-0.37
2023-01-18T23:58:27.161Z,-0.37
